sensor_id;sensor_type;location;lat;lon;timestamp;temperature;humidity
66257;DHT22;53049;43.446;3.698;2023-07-13T00:02:23;24.50;99.90
66257;DHT22;53049;43.446;3.698;2023-07-13T00:04:49;24.40;99.90
66257;DHT22;53049;43.446;3.698;2023-07-13T00:07:15;24.40;99.90
66257;DHT22;53049;43.446;3.698;2023-07-13T00:09:41;24.40;99.90
66257;DHT22;53049;43.446;3.698;2023-07-13T00:12:23;24.30;99.90
66257;DHT22;53049;43.446;3.698;2023-07-13T00:14:49;24.30;99.90
66257;DHT22;53049;43.446;3.698;2023-07-13T00:17:15;24.30;99.90
66257;DHT22;53049;43.446;3.698;2023-07-13T00:19:41;24.30;99.90
66257;DHT22;53049;43.446;3.698;2023-07-13T00:22:07;24.30;99.90
66257;DHT22;53049;43.446;3.698;2023-07-13T00:24:33;24.30;99.90
66257;DHT22;53049;43.446;3.698;2023-07-13T00:26:58;24.40;99.90
66257;DHT22;53049;43.446;3.698;2023-07-13T00:29:26;24.30;99.90
66257;DHT22;53049;43.446;3.698;2023-07-13T00:31:52;24.30;99.90
66257;DHT22;53049;43.446;3.698;2023-07-13T00:34:17;24.30;99.90
66257;DHT22;53049;43.446;3.698;2023-07-13T00:36:43;24.30;99.90
66257;DHT22;53049;43.446;3.698;2023-07-13T00:39:09;24.20;99.90
66257;DHT22;53049;43.446;3.698;2023-07-13T00:41:35;24.30;99.90
66257;DHT22;53049;43.446;3.698;2023-07-13T00:44:02;24.20;99.90
66257;DHT22;53049;43.446;3.698;2023-07-13T00:46:32;24.20;99.90
66257;DHT22;53049;43.446;3.698;2023-07-13T00:49:04;24.20;99.90
66257;DHT22;53049;43.446;3.698;2023-07-13T00:51:37;24.20;99.90
66257;DHT22;53049;43.446;3.698;2023-07-13T00:54:13;24.20;99.90
66257;DHT22;53049;43.446;3.698;2023-07-13T00:56:40;24.20;99.90
66257;DHT22;53049;43.446;3.698;2023-07-13T00:59:07;24.20;99.90
66257;DHT22;53049;43.446;3.698;2023-07-13T01:01:34;24.20;99.90
66257;DHT22;53049;43.446;3.698;2023-07-13T01:03:59;24.20;99.90
66257;DHT22;53049;43.446;3.698;2023-07-13T01:06:25;24.20;99.90
66257;DHT22;53049;43.446;3.698;2023-07-13T01:08:51;24.20;99.90
66257;DHT22;53049;43.446;3.698;2023-07-13T01:11:21;24.20;99.90
66257;DHT22;53049;43.446;3.698;2023-07-13T01:13:48;24.20;99.90
66257;DHT22;53049;43.446;3.698;2023-07-13T01:16:31;24.10;99.90
66257;DHT22;53049;43.446;3.698;2023-07-13T01:18:57;24.10;99.90
66257;DHT22;53049;43.446;3.698;2023-07-13T01:21:24;24.10;99.90
66257;DHT22;53049;43.446;3.698;2023-07-13T01:23:51;24.10;99.90
66257;DHT22;53049;43.446;3.698;2023-07-13T01:26:16;24.10;99.90
66257;DHT22;53049;43.446;3.698;2023-07-13T01:28:42;24.10;99.90
66257;DHT22;53049;43.446;3.698;2023-07-13T01:31:09;24.00;99.90
66257;DHT22;53049;43.446;3.698;2023-07-13T01:33:37;24.00;99.90
66257;DHT22;53049;43.446;3.698;2023-07-13T01:36:04;24.00;99.90
66257;DHT22;53049;43.446;3.698;2023-07-13T01:38:29;24.00;99.90
66257;DHT22;53049;43.446;3.698;2023-07-13T01:40:55;24.00;99.90
66257;DHT22;53049;43.446;3.698;2023-07-13T01:43:21;23.90;99.90
66257;DHT22;53049;43.446;3.698;2023-07-13T01:45:47;23.90;99.90
66257;DHT22;53049;43.446;3.698;2023-07-13T01:48:13;23.90;99.90
66257;DHT22;53049;43.446;3.698;2023-07-13T01:50:39;23.80;99.90
66257;DHT22;53049;43.446;3.698;2023-07-13T01:53:05;23.80;99.90
66257;DHT22;53049;43.446;3.698;2023-07-13T01:55:31;23.80;99.90
66257;DHT22;53049;43.446;3.698;2023-07-13T01:57:57;23.80;99.90
66257;DHT22;53049;43.446;3.698;2023-07-13T02:00:23;23.70;99.90
66257;DHT22;53049;43.446;3.698;2023-07-13T02:02:48;23.70;99.90
66257;DHT22;53049;43.446;3.698;2023-07-13T02:05:14;23.70;99.90
66257;DHT22;53049;43.446;3.698;2023-07-13T02:07:41;23.70;99.90
66257;DHT22;53049;43.446;3.698;2023-07-13T02:10:08;23.60;99.90
66257;DHT22;53049;43.446;3.698;2023-07-13T02:12:34;23.60;99.90
66257;DHT22;53049;43.446;3.698;2023-07-13T02:15:00;23.60;99.90
66257;DHT22;53049;43.446;3.698;2023-07-13T02:17:26;23.60;99.90
66257;DHT22;53049;43.446;3.698;2023-07-13T02:19:53;23.60;99.90
66257;DHT22;53049;43.446;3.698;2023-07-13T02:22:19;23.50;99.90
66257;DHT22;53049;43.446;3.698;2023-07-13T02:24:45;23.50;99.90
66257;DHT22;53049;43.446;3.698;2023-07-13T02:27:10;23.60;99.90
66257;DHT22;53049;43.446;3.698;2023-07-13T02:29:36;23.50;99.90
66257;DHT22;53049;43.446;3.698;2023-07-13T02:32:02;23.50;99.90
66257;DHT22;53049;43.446;3.698;2023-07-13T02:34:28;23.50;99.90
66257;DHT22;53049;43.446;3.698;2023-07-13T02:36:54;23.50;99.90
66257;DHT22;53049;43.446;3.698;2023-07-13T02:39:19;23.40;99.90
66257;DHT22;53049;43.446;3.698;2023-07-13T02:41:45;23.40;99.90
66257;DHT22;53049;43.446;3.698;2023-07-13T02:44:13;23.40;99.90
66257;DHT22;53049;43.446;3.698;2023-07-13T02:46:39;23.40;99.90
66257;DHT22;53049;43.446;3.698;2023-07-13T02:49:05;23.40;99.90
66257;DHT22;53049;43.446;3.698;2023-07-13T02:51:31;23.40;99.90
66257;DHT22;53049;43.446;3.698;2023-07-13T02:54:03;23.40;99.90
66257;DHT22;53049;43.446;3.698;2023-07-13T02:56:29;23.30;99.90
66257;DHT22;53049;43.446;3.698;2023-07-13T02:58:56;23.30;99.90
66257;DHT22;53049;43.446;3.698;2023-07-13T03:01:22;23.30;99.90
66257;DHT22;53049;43.446;3.698;2023-07-13T03:03:48;23.30;99.90
66257;DHT22;53049;43.446;3.698;2023-07-13T03:06:15;23.30;99.90
66257;DHT22;53049;43.446;3.698;2023-07-13T03:08:42;23.30;99.90
66257;DHT22;53049;43.446;3.698;2023-07-13T03:11:13;23.30;99.90
66257;DHT22;53049;43.446;3.698;2023-07-13T03:13:41;23.30;99.90
66257;DHT22;53049;43.446;3.698;2023-07-13T03:16:08;23.30;99.90
66257;DHT22;53049;43.446;3.698;2023-07-13T03:18:36;23.30;99.90
66257;DHT22;53049;43.446;3.698;2023-07-13T03:21:03;23.20;99.90
66257;DHT22;53049;43.446;3.698;2023-07-13T03:23:29;23.20;99.90
66257;DHT22;53049;43.446;3.698;2023-07-13T03:26:12;23.20;99.90
66257;DHT22;53049;43.446;3.698;2023-07-13T03:28:38;23.20;99.90
66257;DHT22;53049;43.446;3.698;2023-07-13T03:31:21;23.20;99.90
66257;DHT22;53049;43.446;3.698;2023-07-13T03:33:47;23.10;99.90
66257;DHT22;53049;43.446;3.698;2023-07-13T03:36:16;23.10;99.90
66257;DHT22;53049;43.446;3.698;2023-07-13T03:38:48;23.10;99.90
66257;DHT22;53049;43.446;3.698;2023-07-13T03:41:15;23.00;99.90
66257;DHT22;53049;43.446;3.698;2023-07-13T03:43:41;23.00;99.90
66257;DHT22;53049;43.446;3.698;2023-07-13T03:46:06;23.00;99.90
66257;DHT22;53049;43.446;3.698;2023-07-13T03:48:32;23.00;99.90
66257;DHT22;53049;43.446;3.698;2023-07-13T03:50:58;22.90;99.90
66257;DHT22;53049;43.446;3.698;2023-07-13T03:53:23;22.90;99.90
66257;DHT22;53049;43.446;3.698;2023-07-13T03:55:49;22.90;99.90
66257;DHT22;53049;43.446;3.698;2023-07-13T03:58:36;22.80;99.90
66257;DHT22;53049;43.446;3.698;2023-07-13T04:01:03;22.90;99.90
66257;DHT22;53049;43.446;3.698;2023-07-13T04:03:30;22.80;99.90
66257;DHT22;53049;43.446;3.698;2023-07-13T04:06:02;22.80;99.90
66257;DHT22;53049;43.446;3.698;2023-07-13T04:08:36;22.80;99.90
66257;DHT22;53049;43.446;3.698;2023-07-13T04:11:04;22.80;99.90
66257;DHT22;53049;43.446;3.698;2023-07-13T04:13:30;22.80;99.90
66257;DHT22;53049;43.446;3.698;2023-07-13T04:15:56;22.80;99.90
66257;DHT22;53049;43.446;3.698;2023-07-13T04:18:22;22.70;99.90
66257;DHT22;53049;43.446;3.698;2023-07-13T04:20:48;22.70;99.90
66257;DHT22;53049;43.446;3.698;2023-07-13T04:23:15;22.70;99.90
66257;DHT22;53049;43.446;3.698;2023-07-13T04:25:45;22.70;99.90
66257;DHT22;53049;43.446;3.698;2023-07-13T04:28:12;22.70;99.90
66257;DHT22;53049;43.446;3.698;2023-07-13T04:30:38;22.70;99.90
66257;DHT22;53049;43.446;3.698;2023-07-13T04:33:03;22.60;99.90
66257;DHT22;53049;43.446;3.698;2023-07-13T04:35:30;22.60;99.90
66257;DHT22;53049;43.446;3.698;2023-07-13T04:37:56;22.60;99.90
66257;DHT22;53049;43.446;3.698;2023-07-13T04:40:21;22.50;99.90
66257;DHT22;53049;43.446;3.698;2023-07-13T04:42:47;22.60;99.90
66257;DHT22;53049;43.446;3.698;2023-07-13T04:45:14;22.60;99.90
66257;DHT22;53049;43.446;3.698;2023-07-13T04:47:40;22.70;99.90
66257;DHT22;53049;43.446;3.698;2023-07-13T04:50:07;22.60;99.90
66257;DHT22;53049;43.446;3.698;2023-07-13T04:52:33;22.60;99.90
66257;DHT22;53049;43.446;3.698;2023-07-13T04:54:59;22.60;99.90
66257;DHT22;53049;43.446;3.698;2023-07-13T04:57:25;22.60;99.90
66257;DHT22;53049;43.446;3.698;2023-07-13T04:59:51;22.60;99.90
66257;DHT22;53049;43.446;3.698;2023-07-13T05:02:19;22.60;99.90
66257;DHT22;53049;43.446;3.698;2023-07-13T05:04:47;22.60;99.90
66257;DHT22;53049;43.446;3.698;2023-07-13T05:07:13;22.60;99.90
66257;DHT22;53049;43.446;3.698;2023-07-13T05:09:38;22.60;99.90
66257;DHT22;53049;43.446;3.698;2023-07-13T05:12:06;22.60;99.90
66257;DHT22;53049;43.446;3.698;2023-07-13T05:14:32;22.60;99.90
66257;DHT22;53049;43.446;3.698;2023-07-13T05:16:58;22.60;99.90
66257;DHT22;53049;43.446;3.698;2023-07-13T05:19:23;22.60;99.90
66257;DHT22;53049;43.446;3.698;2023-07-13T05:21:49;22.70;99.90
66257;DHT22;53049;43.446;3.698;2023-07-13T05:24:14;22.70;99.90
66257;DHT22;53049;43.446;3.698;2023-07-13T05:26:40;22.70;99.90
66257;DHT22;53049;43.446;3.698;2023-07-13T05:29:06;22.70;99.90
66257;DHT22;53049;43.446;3.698;2023-07-13T05:31:31;22.70;99.90
66257;DHT22;53049;43.446;3.698;2023-07-13T05:33:57;22.70;99.90
66257;DHT22;53049;43.446;3.698;2023-07-13T05:36:22;22.70;99.90
66257;DHT22;53049;43.446;3.698;2023-07-13T05:38:48;22.80;99.90
66257;DHT22;53049;43.446;3.698;2023-07-13T05:41:14;22.90;99.90
66257;DHT22;53049;43.446;3.698;2023-07-13T05:43:39;22.80;99.90
66257;DHT22;53049;43.446;3.698;2023-07-13T05:46:05;22.90;99.90
66257;DHT22;53049;43.446;3.698;2023-07-13T05:48:31;23.00;99.90
66257;DHT22;53049;43.446;3.698;2023-07-13T05:50:56;23.00;99.90
66257;DHT22;53049;43.446;3.698;2023-07-13T05:53:22;23.00;99.90
66257;DHT22;53049;43.446;3.698;2023-07-13T05:55:48;23.00;99.90
66257;DHT22;53049;43.446;3.698;2023-07-13T05:58:17;23.00;99.90
66257;DHT22;53049;43.446;3.698;2023-07-13T06:00:43;23.10;99.90
66257;DHT22;53049;43.446;3.698;2023-07-13T06:03:08;23.10;99.90
66257;DHT22;53049;43.446;3.698;2023-07-13T06:05:35;23.10;99.90
66257;DHT22;53049;43.446;3.698;2023-07-13T06:08:02;23.10;99.90
66257;DHT22;53049;43.446;3.698;2023-07-13T06:10:28;23.20;99.90
66257;DHT22;53049;43.446;3.698;2023-07-13T06:12:53;23.10;99.90
66257;DHT22;53049;43.446;3.698;2023-07-13T06:15:19;23.10;99.90
66257;DHT22;53049;43.446;3.698;2023-07-13T06:17:45;23.10;99.90
66257;DHT22;53049;43.446;3.698;2023-07-13T06:20:10;23.20;99.90
66257;DHT22;53049;43.446;3.698;2023-07-13T06:22:36;23.30;99.90
66257;DHT22;53049;43.446;3.698;2023-07-13T06:25:02;23.20;99.90
66257;DHT22;53049;43.446;3.698;2023-07-13T06:27:28;23.30;99.90
66257;DHT22;53049;43.446;3.698;2023-07-13T06:29:53;23.20;99.90
66257;DHT22;53049;43.446;3.698;2023-07-13T06:32:20;23.30;99.90
66257;DHT22;53049;43.446;3.698;2023-07-13T06:34:46;23.20;99.90
66257;DHT22;53049;43.446;3.698;2023-07-13T06:37:11;23.30;99.90
66257;DHT22;53049;43.446;3.698;2023-07-13T06:39:37;23.30;99.90
66257;DHT22;53049;43.446;3.698;2023-07-13T06:42:03;23.30;99.90
66257;DHT22;53049;43.446;3.698;2023-07-13T06:44:29;23.40;99.90
66257;DHT22;53049;43.446;3.698;2023-07-13T06:46:55;23.50;99.90
66257;DHT22;53049;43.446;3.698;2023-07-13T06:49:20;23.50;99.90
66257;DHT22;53049;43.446;3.698;2023-07-13T06:51:46;23.50;99.90
66257;DHT22;53049;43.446;3.698;2023-07-13T06:54:11;23.60;99.90
66257;DHT22;53049;43.446;3.698;2023-07-13T06:56:37;23.70;99.90
66257;DHT22;53049;43.446;3.698;2023-07-13T06:59:02;23.70;99.90
66257;DHT22;53049;43.446;3.698;2023-07-13T07:01:28;23.80;99.90
66257;DHT22;53049;43.446;3.698;2023-07-13T07:03:54;23.80;99.90
66257;DHT22;53049;43.446;3.698;2023-07-13T07:06:21;23.80;99.90
66257;DHT22;53049;43.446;3.698;2023-07-13T07:08:50;23.80;99.90
66257;DHT22;53049;43.446;3.698;2023-07-13T07:11:22;23.80;99.90
66257;DHT22;53049;43.446;3.698;2023-07-13T07:13:48;23.90;99.90
66257;DHT22;53049;43.446;3.698;2023-07-13T07:16:14;23.90;99.90
66257;DHT22;53049;43.446;3.698;2023-07-13T07:18:40;24.00;99.90
66257;DHT22;53049;43.446;3.698;2023-07-13T07:21:05;24.10;99.90
66257;DHT22;53049;43.446;3.698;2023-07-13T07:23:31;24.10;99.90
66257;DHT22;53049;43.446;3.698;2023-07-13T07:25:57;24.30;99.90
66257;DHT22;53049;43.446;3.698;2023-07-13T07:28:22;24.40;99.90
66257;DHT22;53049;43.446;3.698;2023-07-13T07:30:49;24.50;99.90
66257;DHT22;53049;43.446;3.698;2023-07-13T07:33:15;24.90;99.90
66257;DHT22;53049;43.446;3.698;2023-07-13T07:35:42;25.70;99.90
66257;DHT22;53049;43.446;3.698;2023-07-13T07:38:08;26.50;99.90
66257;DHT22;53049;43.446;3.698;2023-07-13T07:40:37;27.10;99.90
66257;DHT22;53049;43.446;3.698;2023-07-13T07:43:03;27.60;99.90
66257;DHT22;53049;43.446;3.698;2023-07-13T07:45:29;28.50;99.90
66257;DHT22;53049;43.446;3.698;2023-07-13T07:47:54;28.80;99.90
66257;DHT22;53049;43.446;3.698;2023-07-13T07:50:24;29.00;99.90
66257;DHT22;53049;43.446;3.698;2023-07-13T07:52:50;29.60;99.90
66257;DHT22;53049;43.446;3.698;2023-07-13T07:55:16;29.70;99.90
66257;DHT22;53049;43.446;3.698;2023-07-13T07:57:41;30.10;99.90
66257;DHT22;53049;43.446;3.698;2023-07-13T08:00:08;29.90;99.90
66257;DHT22;53049;43.446;3.698;2023-07-13T08:02:34;30.10;99.90
66257;DHT22;53049;43.446;3.698;2023-07-13T08:04:59;31.00;99.90
66257;DHT22;53049;43.446;3.698;2023-07-13T08:07:25;31.80;99.90
66257;DHT22;53049;43.446;3.698;2023-07-13T08:09:54;33.00;99.90
66257;DHT22;53049;43.446;3.698;2023-07-13T08:12:20;33.60;99.90
66257;DHT22;53049;43.446;3.698;2023-07-13T08:14:49;33.80;99.90
66257;DHT22;53049;43.446;3.698;2023-07-13T08:17:19;34.40;99.90
66257;DHT22;53049;43.446;3.698;2023-07-13T08:19:45;34.70;99.90
66257;DHT22;53049;43.446;3.698;2023-07-13T08:22:11;33.30;99.90
66257;DHT22;53049;43.446;3.698;2023-07-13T08:24:37;34.70;99.90
66257;DHT22;53049;43.446;3.698;2023-07-13T08:27:02;36.70;99.90
66257;DHT22;53049;43.446;3.698;2023-07-13T08:29:28;38.40;99.90
66257;DHT22;53049;43.446;3.698;2023-07-13T08:31:57;38.30;99.90
66257;DHT22;53049;43.446;3.698;2023-07-13T08:34:23;38.20;99.90
66257;DHT22;53049;43.446;3.698;2023-07-13T08:36:49;34.20;99.90
66257;DHT22;53049;43.446;3.698;2023-07-13T08:39:14;33.50;99.90
66257;DHT22;53049;43.446;3.698;2023-07-13T08:41:40;32.50;99.90
66257;DHT22;53049;43.446;3.698;2023-07-13T08:44:15;31.70;99.90
66257;DHT22;53049;43.446;3.698;2023-07-13T08:46:44;31.60;99.90
66257;DHT22;53049;43.446;3.698;2023-07-13T08:49:14;30.70;99.90
66257;DHT22;53049;43.446;3.698;2023-07-13T08:54:22;30.70;99.90
66257;DHT22;53049;43.446;3.698;2023-07-13T08:56:53;31.30;99.90
66257;DHT22;53049;43.446;3.698;2023-07-13T08:59:22;31.30;99.90
66257;DHT22;53049;43.446;3.698;2023-07-13T09:02:23;31.10;99.90
66257;DHT22;53049;43.446;3.698;2023-07-13T09:05:01;32.10;99.90
66257;DHT22;53049;43.446;3.698;2023-07-13T09:10:03;31.60;99.90
66257;DHT22;53049;43.446;3.698;2023-07-13T09:15:28;30.90;99.90
66257;DHT22;53049;43.446;3.698;2023-07-13T09:18:21;30.80;99.90
66257;DHT22;53049;43.446;3.698;2023-07-13T09:20:47;30.30;99.90
66257;DHT22;53049;43.446;3.698;2023-07-13T09:23:20;30.50;99.90
66257;DHT22;53049;43.446;3.698;2023-07-13T09:25:52;30.90;99.90
66257;DHT22;53049;43.446;3.698;2023-07-13T09:28:29;32.00;99.90
66257;DHT22;53049;43.446;3.698;2023-07-13T09:33:43;32.50;99.90
66257;DHT22;53049;43.446;3.698;2023-07-13T09:38:48;32.20;99.90
66257;DHT22;53049;43.446;3.698;2023-07-13T09:44:29;32.80;99.90
66257;DHT22;53049;43.446;3.698;2023-07-13T09:46:57;32.30;99.90
66257;DHT22;53049;43.446;3.698;2023-07-13T09:49:27;32.60;99.90
66257;DHT22;53049;43.446;3.698;2023-07-13T09:52:02;32.30;99.90
66257;DHT22;53049;43.446;3.698;2023-07-13T09:54:28;30.90;99.90
66257;DHT22;53049;43.446;3.698;2023-07-13T09:57:01;31.60;99.90
66257;DHT22;53049;43.446;3.698;2023-07-13T09:59:34;31.50;99.90
66257;DHT22;53049;43.446;3.698;2023-07-13T10:02:00;31.70;99.90
66257;DHT22;53049;43.446;3.698;2023-07-13T10:04:32;31.80;99.90
66257;DHT22;53049;43.446;3.698;2023-07-13T10:07:05;31.70;99.90
66257;DHT22;53049;43.446;3.698;2023-07-13T10:09:32;32.40;99.90
66257;DHT22;53049;43.446;3.698;2023-07-13T10:11:58;33.20;99.90
66257;DHT22;53049;43.446;3.698;2023-07-13T10:14:23;33.20;99.90
66257;DHT22;53049;43.446;3.698;2023-07-13T10:16:55;33.30;99.90
66257;DHT22;53049;43.446;3.698;2023-07-13T10:19:25;33.20;99.90
66257;DHT22;53049;43.446;3.698;2023-07-13T10:21:57;32.60;99.90
66257;DHT22;53049;43.446;3.698;2023-07-13T10:24:27;31.80;99.90
66257;DHT22;53049;43.446;3.698;2023-07-13T10:27:20;31.90;99.90
66257;DHT22;53049;43.446;3.698;2023-07-13T10:30:01;32.40;99.90
66257;DHT22;53049;43.446;3.698;2023-07-13T10:32:28;31.60;99.90
66257;DHT22;53049;43.446;3.698;2023-07-13T10:34:54;30.90;99.90
66257;DHT22;53049;43.446;3.698;2023-07-13T10:37:27;31.00;99.90
66257;DHT22;53049;43.446;3.698;2023-07-13T10:39:56;31.20;99.90
66257;DHT22;53049;43.446;3.698;2023-07-13T10:42:32;31.30;99.90
66257;DHT22;53049;43.446;3.698;2023-07-13T10:45:00;31.50;99.90
66257;DHT22;53049;43.446;3.698;2023-07-13T10:47:26;31.20;99.90
66257;DHT22;53049;43.446;3.698;2023-07-13T10:49:56;30.50;99.90
66257;DHT22;53049;43.446;3.698;2023-07-13T10:52:43;30.30;99.90
66257;DHT22;53049;43.446;3.698;2023-07-13T10:58:40;30.10;99.90
66257;DHT22;53049;43.446;3.698;2023-07-13T11:03:55;29.90;99.90
66257;DHT22;53049;43.446;3.698;2023-07-13T11:08:58;29.90;99.90
66257;DHT22;53049;43.446;3.698;2023-07-13T11:19:37;29.90;99.90
66257;DHT22;53049;43.446;3.698;2023-07-13T11:35:36;30.00;99.90
66257;DHT22;53049;43.446;3.698;2023-07-13T11:38:12;30.10;99.90
66257;DHT22;53049;43.446;3.698;2023-07-13T11:40:38;30.30;99.90
66257;DHT22;53049;43.446;3.698;2023-07-13T11:43:06;30.40;99.90
66257;DHT22;53049;43.446;3.698;2023-07-13T11:45:33;30.40;99.90
66257;DHT22;53049;43.446;3.698;2023-07-13T11:47:58;30.20;99.90
66257;DHT22;53049;43.446;3.698;2023-07-13T11:50:26;30.20;99.90
66257;DHT22;53049;43.446;3.698;2023-07-13T11:52:54;30.20;99.90
66257;DHT22;53049;43.446;3.698;2023-07-13T11:55:22;30.10;99.90
66257;DHT22;53049;43.446;3.698;2023-07-13T11:57:53;30.20;99.90
66257;DHT22;53049;43.446;3.698;2023-07-13T12:00:23;30.30;99.90
66257;DHT22;53049;43.446;3.698;2023-07-13T12:02:54;30.30;99.90
66257;DHT22;53049;43.446;3.698;2023-07-13T12:05:20;30.20;99.90
66257;DHT22;53049;43.446;3.698;2023-07-13T12:07:46;30.40;99.90
66257;DHT22;53049;43.446;3.698;2023-07-13T12:10:20;30.20;99.90
66257;DHT22;53049;43.446;3.698;2023-07-13T12:12:59;30.20;99.90
66257;DHT22;53049;43.446;3.698;2023-07-13T12:15:37;30.40;99.90
66257;DHT22;53049;43.446;3.698;2023-07-13T12:18:03;30.40;99.90
66257;DHT22;53049;43.446;3.698;2023-07-13T12:20:35;30.30;99.90
66257;DHT22;53049;43.446;3.698;2023-07-13T12:23:05;30.50;99.90
66257;DHT22;53049;43.446;3.698;2023-07-13T12:25:35;30.40;99.90
66257;DHT22;53049;43.446;3.698;2023-07-13T12:28:23;30.30;99.90
66257;DHT22;53049;43.446;3.698;2023-07-13T12:30:58;30.10;99.90
66257;DHT22;53049;43.446;3.698;2023-07-13T12:33:28;30.40;99.90
66257;DHT22;53049;43.446;3.698;2023-07-13T12:35:54;30.40;99.90
66257;DHT22;53049;43.446;3.698;2023-07-13T12:38:21;30.40;99.90
66257;DHT22;53049;43.446;3.698;2023-07-13T12:40:49;30.40;99.90
66257;DHT22;53049;43.446;3.698;2023-07-13T12:43:16;30.40;99.90
66257;DHT22;53049;43.446;3.698;2023-07-13T12:46:18;30.50;99.90
66257;DHT22;53049;43.446;3.698;2023-07-13T12:48:49;30.70;99.90
66257;DHT22;53049;43.446;3.698;2023-07-13T12:51:15;30.80;99.90
66257;DHT22;53049;43.446;3.698;2023-07-13T12:53:50;30.50;99.90
66257;DHT22;53049;43.446;3.698;2023-07-13T12:56:24;30.40;99.90
66257;DHT22;53049;43.446;3.698;2023-07-13T12:58:56;30.20;99.90
66257;DHT22;53049;43.446;3.698;2023-07-13T13:01:22;30.20;99.90
66257;DHT22;53049;43.446;3.698;2023-07-13T13:03:52;30.20;99.90
66257;DHT22;53049;43.446;3.698;2023-07-13T13:08:53;30.10;99.90
66257;DHT22;53049;43.446;3.698;2023-07-13T13:11:21;30.20;99.90
66257;DHT22;53049;43.446;3.698;2023-07-13T13:13:48;30.20;99.90
66257;DHT22;53049;43.446;3.698;2023-07-13T13:18:53;30.40;99.90
66257;DHT22;53049;43.446;3.698;2023-07-13T13:21:20;30.50;99.90
66257;DHT22;53049;43.446;3.698;2023-07-13T13:23:46;30.70;99.90
66257;DHT22;53049;43.446;3.698;2023-07-13T13:26:14;30.60;99.90
66257;DHT22;53049;43.446;3.698;2023-07-13T13:28:41;30.50;99.90
66257;DHT22;53049;43.446;3.698;2023-07-13T13:31:08;30.50;99.90
66257;DHT22;53049;43.446;3.698;2023-07-13T13:33:38;30.40;99.90
66257;DHT22;53049;43.446;3.698;2023-07-13T13:36:13;30.40;99.90
66257;DHT22;53049;43.446;3.698;2023-07-13T13:38:41;30.40;99.90
66257;DHT22;53049;43.446;3.698;2023-07-13T13:41:09;30.50;99.90
66257;DHT22;53049;43.446;3.698;2023-07-13T13:43:35;30.50;99.90
66257;DHT22;53049;43.446;3.698;2023-07-13T13:46:01;30.70;99.90
66257;DHT22;53049;43.446;3.698;2023-07-13T13:48:32;30.60;99.90
66257;DHT22;53049;43.446;3.698;2023-07-13T13:50:59;30.50;99.90
66257;DHT22;53049;43.446;3.698;2023-07-13T13:53:26;30.50;99.90
66257;DHT22;53049;43.446;3.698;2023-07-13T13:55:52;30.60;99.90
66257;DHT22;53049;43.446;3.698;2023-07-13T13:58:18;30.40;99.90
66257;DHT22;53049;43.446;3.698;2023-07-13T14:00:44;30.50;99.90
66257;DHT22;53049;43.446;3.698;2023-07-13T14:03:20;30.40;99.90
66257;DHT22;53049;43.446;3.698;2023-07-13T14:05:47;30.40;99.90
66257;DHT22;53049;43.446;3.698;2023-07-13T14:08:19;30.40;99.90
66257;DHT22;53049;43.446;3.698;2023-07-13T14:10:53;30.50;99.90
66257;DHT22;53049;43.446;3.698;2023-07-13T14:15:47;30.40;99.90
66257;DHT22;53049;43.446;3.698;2023-07-13T14:18:13;30.50;99.90
66257;DHT22;53049;43.446;3.698;2023-07-13T14:20:44;30.50;99.90
66257;DHT22;53049;43.446;3.698;2023-07-13T14:23:10;30.60;99.90
66257;DHT22;53049;43.446;3.698;2023-07-13T14:25:35;30.30;99.90
66257;DHT22;53049;43.446;3.698;2023-07-13T14:30:42;30.30;99.90
66257;DHT22;53049;43.446;3.698;2023-07-13T14:33:10;30.30;99.90
66257;DHT22;53049;43.446;3.698;2023-07-13T14:35:36;30.60;99.90
66257;DHT22;53049;43.446;3.698;2023-07-13T14:38:03;30.50;99.90
66257;DHT22;53049;43.446;3.698;2023-07-13T14:40:31;30.50;99.90
66257;DHT22;53049;43.446;3.698;2023-07-13T14:42:57;30.60;99.90
66257;DHT22;53049;43.446;3.698;2023-07-13T14:45:24;30.40;99.90
66257;DHT22;53049;43.446;3.698;2023-07-13T14:47:50;30.20;99.90
66257;DHT22;53049;43.446;3.698;2023-07-13T14:50:19;30.20;99.90
66257;DHT22;53049;43.446;3.698;2023-07-13T14:52:46;30.10;99.90
66257;DHT22;53049;43.446;3.698;2023-07-13T14:55:19;30.10;99.90
66257;DHT22;53049;43.446;3.698;2023-07-13T14:57:45;30.40;99.90
66257;DHT22;53049;43.446;3.698;2023-07-13T15:00:15;30.40;99.90
66257;DHT22;53049;43.446;3.698;2023-07-13T15:02:43;30.50;99.90
66257;DHT22;53049;43.446;3.698;2023-07-13T15:05:22;30.60;99.90
66257;DHT22;53049;43.446;3.698;2023-07-13T15:07:51;30.80;99.90
66257;DHT22;53049;43.446;3.698;2023-07-13T15:10:19;30.80;99.90
66257;DHT22;53049;43.446;3.698;2023-07-13T15:12:45;30.90;99.90
66257;DHT22;53049;43.446;3.698;2023-07-13T15:15:12;30.80;99.90
66257;DHT22;53049;43.446;3.698;2023-07-13T15:17:41;30.80;99.90
66257;DHT22;53049;43.446;3.698;2023-07-13T15:20:28;30.90;99.90
66257;DHT22;53049;43.446;3.698;2023-07-13T15:22:55;30.70;99.90
66257;DHT22;53049;43.446;3.698;2023-07-13T15:25:23;30.50;99.90
66257;DHT22;53049;43.446;3.698;2023-07-13T15:27:50;30.40;99.90
66257;DHT22;53049;43.446;3.698;2023-07-13T15:30:16;30.40;99.90
66257;DHT22;53049;43.446;3.698;2023-07-13T15:32:43;30.50;99.90
66257;DHT22;53049;43.446;3.698;2023-07-13T15:35:20;30.50;99.90
66257;DHT22;53049;43.446;3.698;2023-07-13T15:37:47;30.60;99.90
66257;DHT22;53049;43.446;3.698;2023-07-13T15:40:14;30.70;99.90
66257;DHT22;53049;43.446;3.698;2023-07-13T15:42:41;30.80;99.90
66257;DHT22;53049;43.446;3.698;2023-07-13T15:47:45;30.50;99.90
66257;DHT22;53049;43.446;3.698;2023-07-13T15:50:17;30.40;99.90
66257;DHT22;53049;43.446;3.698;2023-07-13T15:52:44;30.40;99.90
66257;DHT22;53049;43.446;3.698;2023-07-13T15:55:12;30.60;99.90
66257;DHT22;53049;43.446;3.698;2023-07-13T15:57:40;30.50;99.90
66257;DHT22;53049;43.446;3.698;2023-07-13T16:00:20;30.80;99.90
66257;DHT22;53049;43.446;3.698;2023-07-13T16:02:47;30.70;99.90
66257;DHT22;53049;43.446;3.698;2023-07-13T16:05:14;30.60;99.90
66257;DHT22;53049;43.446;3.698;2023-07-13T16:07:45;30.40;99.90
66257;DHT22;53049;43.446;3.698;2023-07-13T16:10:22;30.50;99.90
66257;DHT22;53049;43.446;3.698;2023-07-13T16:12:50;30.60;99.90
66257;DHT22;53049;43.446;3.698;2023-07-13T16:15:18;30.60;99.90
66257;DHT22;53049;43.446;3.698;2023-07-13T16:17:45;30.60;99.90
66257;DHT22;53049;43.446;3.698;2023-07-13T16:20:12;30.60;99.90
66257;DHT22;53049;43.446;3.698;2023-07-13T16:22:45;30.60;99.90
66257;DHT22;53049;43.446;3.698;2023-07-13T16:25:21;30.50;99.90
66257;DHT22;53049;43.446;3.698;2023-07-13T16:27:49;30.50;99.90
66257;DHT22;53049;43.446;3.698;2023-07-13T16:30:21;30.40;99.90
66257;DHT22;53049;43.446;3.698;2023-07-13T16:32:51;30.40;99.90
66257;DHT22;53049;43.446;3.698;2023-07-13T16:35:25;30.40;99.90
66257;DHT22;53049;43.446;3.698;2023-07-13T16:37:51;30.40;99.90